Погода Буркона неделю

Санаг, Сомали

02 - 08 марта
  • 02марта
    Сегодня
    +19°
    +35°
    Ясно и безоблачно
    ВремяПогодаТемператураВлажностьДавлениеВетер, м/сВероятность осадков
    00:00Ясно и безоблачно+24°C65 %690 мм2.6 м/с2 %
    03:00Практически безоблачно+22°C70 %689 мм2.3 м/с2 %
    06:00Ясно и безоблачно+21°C58 %690 мм2.4 м/с2 %
    09:00Ясно и безоблачно+26°C48 %693 мм2.9 м/с2 %
    12:00Ясно и безоблачно+32°C32 %692 мм3.4 м/с2 %
    15:00Ясно и безоблачно+34°C22 %689 мм3.2 м/с2 %
    18:00Ясно и безоблачно+33°C20 %689 мм3.6 м/с2 %
    21:00Ясно и безоблачно+29°C18 %690 мм3.9 м/с2 %
  • 03марта
    Воскресенье
    +22°
    +35°
    Облачно с прояснениями
    ВремяПогодаТемператураВлажностьДавлениеВетер, м/сВероятность осадков
    00:00Ясно и безоблачно+25°C63 %690 мм4.3 м/с2 %
    03:00Ясно и безоблачно+22°C70 %689 мм3.1 м/с2 %
    06:00Облачно с прояснениями+20°C59 %689 мм1.8 м/с2 %
    09:00Облачно с прояснениями+25°C60 %692 мм3.1 м/с2 %
    12:00Облачно с прояснениями+31°C39 %691 мм2.9 м/с2 %
    15:00Облачно с прояснениями+34°C27 %689 мм2.5 м/с2 %
    18:00Облачно с прояснениями+34°C26 %688 мм2.6 м/с2 %
    21:00Ясно и безоблачно+30°C28 %689 мм3.8 м/с2 %
  • 04марта
    Понедельник
    +21°
    +35°
    Облачно с прояснениями
    ВремяПогодаТемператураВлажностьДавлениеВетер, м/сВероятность осадков
    00:00Ясно и безоблачно+27°C37 %689 мм3.7 м/с2 %
    03:00Небольшая облачность+25°C49 %689 мм4.5 м/с2 %
    06:00Облачно с прояснениями+22°C84 %689 мм2.7 м/с2 %
    09:00Облачно с прояснениями+25°C65 %691 мм3.1 м/с7 %
    12:00Облачно с прояснениями+31°C40 %690 мм3.2 м/с2 %
    15:00Облачно с прояснениями+34°C26 %688 мм2.7 м/с5 %
    18:00Облачно с прояснениями+33°C27 %689 мм4.5 м/с2 %
    21:00Облачно с прояснениями+30°C27 %690 мм4.4 м/с2 %
  • 05марта
    Вторник
    +20°
    +35°
    Облачно с прояснениями
    ВремяПогодаТемператураВлажностьДавлениеВетер, м/сВероятность осадков
    00:00Практически безоблачно+26°C32 %689 мм3.1 м/с2 %
    03:00Небольшая облачность+24°C48 %688 мм2.2 м/с2 %
    06:00Ясно и безоблачно+22°C70 %690 мм1.9 м/с2 %
    09:00Ясно и безоблачно+25°C55 %692 мм3.1 м/с2 %
    12:00Ясно и безоблачно+32°C21 %691 мм4.4 м/с2 %
    15:00Облачно с прояснениями+34°C18 %689 мм4.2 м/с2 %
    18:00Облачно с прояснениями+33°C21 %689 мм3.5 м/с2 %
    21:00Облачно с прояснениями+29°C27 %690 мм4.0 м/с2 %
  • 06марта
    Среда
    +21°
    +34°
    Ясно и безоблачно
    ВремяПогодаТемператураВлажностьДавлениеВетер, м/сВероятность осадков
    00:00Облачно с прояснениями+27°C37 %690 мм3.8 м/с2 %
    03:00Небольшая облачность+24°C53 %689 мм4.0 м/с2 %
    06:00Ясно и безоблачно+21°C69 %691 мм2.6 м/с2 %
    09:00Ясно и безоблачно+25°C59 %693 мм3.4 м/с2 %
    12:00Ясно и безоблачно+30°C24 %691 мм3.8 м/с2 %
    15:00Ясно и безоблачно+34°C17 %689 мм3.8 м/с2 %
    18:00Ясно и безоблачно+33°C20 %689 мм2.7 м/с2 %
    21:00Ясно и безоблачно+29°C26 %690 мм2.8 м/с2 %
Мы используем cookies
Соглашаюсь